createdAt,value
2019-05-20T00:00:21.032Z,20.80
2019-05-20T00:02:50.498Z,21.30
2019-05-20T00:05:19.938Z,19.82
2019-05-20T00:07:49.401Z,21.05
2019-05-20T00:10:18.914Z,22.20
2019-05-20T00:12:48.391Z,20.95
2019-05-20T00:15:18.024Z,21.33
2019-05-20T00:17:47.476Z,21.82
2019-05-20T00:20:17.097Z,21.95
2019-05-20T00:22:46.538Z,21.48
2019-05-20T00:25:16.002Z,22.80
2019-05-20T00:27:45.463Z,21.93
2019-05-20T00:30:15.828Z,22.27
2019-05-20T00:32:45.343Z,22.75
2019-05-20T00:35:14.979Z,22.17
2019-05-20T00:37:44.441Z,23.50
2019-05-20T00:40:14.291Z,23.62
2019-05-20T00:42:43.746Z,23.15
2019-05-20T00:45:13.906Z,23.67
2019-05-20T00:47:43.379Z,24.67
2019-05-20T00:50:13.179Z,24.52
2019-05-20T00:52:42.698Z,24.45
2019-05-20T00:55:16.859Z,25.15
2019-05-20T00:57:46.296Z,25.68
2019-05-20T01:00:15.895Z,25.25
2019-05-20T01:02:56.512Z,23.40
2019-05-20T01:05:16.539Z,22.65
2019-05-20T01:07:46.007Z,22.77
2019-05-20T01:10:16.294Z,23.98
2019-05-20T01:12:45.787Z,22.70
2019-05-20T01:15:16.245Z,22.48
2019-05-20T01:17:45.788Z,22.70
2019-05-20T01:20:15.699Z,22.40
2019-05-20T01:22:45.168Z,22.15
2019-05-20T01:25:14.616Z,23.20
2019-05-20T01:27:44.095Z,22.07
2019-05-20T01:30:15.162Z,24.43
2019-05-20T01:32:44.655Z,22.52
2019-05-20T01:35:15.784Z,23.18
2019-05-20T01:37:45.519Z,23.27
2019-05-20T01:40:15.202Z,23.20
2019-05-20T01:42:44.654Z,23.30
2019-05-20T01:45:14.441Z,23.18
2019-05-20T01:47:43.883Z,22.90
2019-05-20T01:50:13.426Z,22.77
2019-05-20T01:52:42.874Z,22.52
2019-05-20T01:55:12.772Z,21.68
2019-05-20T01:57:42.236Z,22.42
2019-05-20T02:00:13.110Z,22.82
2019-05-20T02:02:42.577Z,22.48
2019-05-20T02:05:12.275Z,21.95
2019-05-20T02:07:41.770Z,21.68
2019-05-20T02:10:12.437Z,21.75
2019-05-20T02:12:41.878Z,21.90
2019-05-20T02:15:13.286Z,23.40
2019-05-20T02:17:42.728Z,23.90
2019-05-20T02:20:12.328Z,24.27
2019-05-20T02:22:41.801Z,25.10
2019-05-20T02:25:11.493Z,24.07
2019-05-20T02:27:40.969Z,25.17
2019-05-20T02:30:11.140Z,24.92
2019-05-20T02:32:40.609Z,25.92
2019-05-20T02:35:10.792Z,24.37
2019-05-20T02:37:40.257Z,24.35
2019-05-20T02:40:11.218Z,24.45
2019-05-20T02:42:40.847Z,23.83
2019-05-20T02:45:10.640Z,24.65
2019-05-20T02:47:40.099Z,25.32
2019-05-20T02:50:12.307Z,25.70
2019-05-20T02:52:41.832Z,25.25
2019-05-20T02:55:12.176Z,24.67
2019-05-20T02:57:41.688Z,25.10
2019-05-20T03:00:11.861Z,26.70
2019-05-20T03:02:41.314Z,25.10
2019-05-20T03:05:10.999Z,26.37
2019-05-20T03:07:40.552Z,25.97
2019-05-20T03:10:10.132Z,25.68
2019-05-20T03:12:39.598Z,26.95
2019-05-20T03:15:09.412Z,25.82
2019-05-20T03:17:38.962Z,26.80
2019-05-20T03:20:09.447Z,25.92
2019-05-20T03:22:38.879Z,25.92
2019-05-20T03:25:09.570Z,25.32
2019-05-20T03:27:39.275Z,25.90
2019-05-20T03:30:10.842Z,26.40
2019-05-20T03:32:40.317Z,24.85
2019-05-20T03:35:10.333Z,24.80
2019-05-20T03:37:39.852Z,22.70
2019-05-20T03:40:10.136Z,22.55
2019-05-20T03:42:39.761Z,21.27
2019-05-20T03:45:09.542Z,22.32
2019-05-20T03:47:38.995Z,20.57
2019-05-20T03:50:09.140Z,19.10
2019-05-20T03:52:39.020Z,19.77
2019-05-20T03:55:09.100Z,19.48
2019-05-20T03:57:38.568Z,18.23
2019-05-20T04:00:08.651Z,18.02
2019-05-20T04:02:38.107Z,18.32
2019-05-20T04:05:08.420Z,18.65
2019-05-20T04:07:40.724Z,18.70
2019-05-20T04:10:10.374Z,19.80
2019-05-20T04:12:39.824Z,18.15
2019-05-20T04:15:09.724Z,18.15
2019-05-20T04:17:39.170Z,18.52
2019-05-20T04:20:09.158Z,17.20
2019-05-20T04:22:38.624Z,18.50
2019-05-20T04:25:08.378Z,18.02
2019-05-20T04:27:39.996Z,19.45
2019-05-20T04:30:10.054Z,18.35
2019-05-20T04:32:39.525Z,18.60
2019-05-20T04:35:21.641Z,18.92
2019-05-20T04:37:40.330Z,20.37
2019-05-20T04:40:10.966Z,21.23
2019-05-20T04:42:40.429Z,20.15
2019-05-20T04:45:11.620Z,19.62
2019-05-20T04:47:41.054Z,20.88
2019-05-20T04:50:10.942Z,20.15
2019-05-20T04:52:40.383Z,20.37
2019-05-20T04:55:10.593Z,20.27
2019-05-20T04:57:40.038Z,22.02
2019-05-20T05:00:11.113Z,20.75
2019-05-20T05:02:43.449Z,21.20
2019-05-20T05:05:12.228Z,20.17
2019-05-20T05:07:41.660Z,18.82
2019-05-20T05:10:13.289Z,19.62
2019-05-20T05:12:42.729Z,19.07
2019-05-20T05:15:12.812Z,20.15
2019-05-20T05:17:42.266Z,17.55
2019-05-20T05:20:17.866Z,19.12
2019-05-20T05:22:43.380Z,19.17
2019-05-20T05:25:13.291Z,19.90
2019-05-20T05:27:42.724Z,20.77
2019-05-20T05:30:12.331Z,20.68
2019-05-20T05:32:42.405Z,19.62
2019-05-20T05:35:14.892Z,21.62
2019-05-20T05:37:44.579Z,19.60
2019-05-20T05:40:15.225Z,19.73
2019-05-20T05:42:44.702Z,20.45
2019-05-20T05:45:14.679Z,20.27
2019-05-20T05:47:45.693Z,18.35
2019-05-20T05:50:17.236Z,20.17
2019-05-20T05:52:46.697Z,19.90
2019-05-20T05:55:16.334Z,19.50
2019-05-20T05:57:45.740Z,18.52
2019-05-20T06:00:17.204Z,19.80
2019-05-20T06:02:46.640Z,20.52
2019-05-20T06:05:16.223Z,19.23
2019-05-20T06:07:45.688Z,18.62
2019-05-20T06:10:15.461Z,18.32
2019-05-20T06:12:44.941Z,17.52
2019-05-20T06:15:16.729Z,18.70
2019-05-20T06:17:46.176Z,18.62
2019-05-20T06:20:17.727Z,18.98
2019-05-20T06:22:47.175Z,17.62
2019-05-20T06:25:17.335Z,17.05
2019-05-20T06:27:46.906Z,16.52
2019-05-20T06:30:17.278Z,19.45
2019-05-20T06:32:46.752Z,19.17
2019-05-20T06:35:16.954Z,18.10
2019-05-20T06:37:48.508Z,18.70
2019-05-20T06:40:18.465Z,19.45
2019-05-20T06:42:47.932Z,19.52
2019-05-20T06:45:17.717Z,19.02
2019-05-20T06:47:47.163Z,16.45
2019-05-20T06:50:16.889Z,16.30
2019-05-20T06:52:46.325Z,16.65
2019-05-20T06:55:16.014Z,17.55
2019-05-20T06:57:45.490Z,16.75
2019-05-20T07:00:19.662Z,15.40
2019-05-20T07:02:52.037Z,16.00
2019-05-20T07:05:20.297Z,16.55
2019-05-20T07:07:49.798Z,16.55
2019-05-20T07:10:19.260Z,16.05
2019-05-20T07:12:48.708Z,16.12
2019-05-20T07:15:18.489Z,15.98
2019-05-20T07:17:48.010Z,16.25
2019-05-20T07:20:17.539Z,15.35
2019-05-20T07:22:55.949Z,16.45
2019-05-20T07:25:18.195Z,16.23
2019-05-20T07:27:47.723Z,15.23
2019-05-20T07:30:19.195Z,15.60
2019-05-20T07:32:48.673Z,15.08
2019-05-20T07:35:29.554Z,14.43
2019-05-20T07:37:49.322Z,14.87
2019-05-20T07:40:23.503Z,15.98
2019-05-20T07:42:52.979Z,15.45
2019-05-20T07:45:22.463Z,15.63
2019-05-20T07:47:51.973Z,15.95
2019-05-20T07:50:21.777Z,17.00
2019-05-20T07:52:51.574Z,17.35
2019-05-20T07:55:21.362Z,16.40
2019-05-20T07:57:53.080Z,16.27
2019-05-20T08:00:22.719Z,15.70
2019-05-20T08:02:52.163Z,15.70
2019-05-20T08:05:21.853Z,15.63
2019-05-20T08:07:52.780Z,14.98
2019-05-20T08:10:22.529Z,15.32
2019-05-20T08:12:51.997Z,14.78
2019-05-20T08:15:21.425Z,14.45
2019-05-20T08:17:50.907Z,13.93
2019-05-20T08:20:20.678Z,13.98
2019-05-20T08:22:50.143Z,13.38
2019-05-20T08:25:19.892Z,13.50
2019-05-20T08:27:49.346Z,13.80
2019-05-20T08:30:23.509Z,13.22
2019-05-20T08:32:52.991Z,14.83
2019-05-20T08:35:23.799Z,13.98
2019-05-20T08:37:53.422Z,14.35
2019-05-20T08:40:22.983Z,13.10
2019-05-20T08:42:52.458Z,13.32
2019-05-20T08:45:24.719Z,12.45
2019-05-20T08:47:54.187Z,11.12
2019-05-20T08:50:23.700Z,12.98
2019-05-20T08:52:53.166Z,12.43
2019-05-20T08:55:22.906Z,12.58
2019-05-20T08:57:52.412Z,12.85
2019-05-20T09:00:24.553Z,12.15
2019-05-20T09:02:54.510Z,11.63
2019-05-20T09:05:27.676Z,12.63
2019-05-20T09:08:02.770Z,12.00
2019-05-20T09:10:26.336Z,12.20
2019-05-20T09:12:55.778Z,12.13
2019-05-20T09:15:25.238Z,12.30
2019-05-20T09:17:54.800Z,10.80
2019-05-20T09:20:24.901Z,10.38
2019-05-20T09:22:54.548Z,10.03
2019-05-20T09:25:28.715Z,10.32
2019-05-20T09:27:58.246Z,10.48
2019-05-20T09:30:27.894Z,10.50
2019-05-20T09:32:57.756Z,10.95
2019-05-20T09:35:27.428Z,11.53
2019-05-20T09:37:56.960Z,13.45
2019-05-20T09:40:31.126Z,12.50
2019-05-20T09:43:00.569Z,12.00
2019-05-20T09:45:30.068Z,10.80
2019-05-20T09:47:59.498Z,10.98
2019-05-20T09:50:28.983Z,9.80
2019-05-20T09:52:58.564Z,10.80
2019-05-20T09:55:28.048Z,10.75
2019-05-20T09:57:57.508Z,10.30
2019-05-20T10:00:27.357Z,11.08
2019-05-20T10:02:57.250Z,12.58
2019-05-20T10:05:26.823Z,11.20
2019-05-20T10:07:56.621Z,10.68
2019-05-20T10:10:26.151Z,11.68
2019-05-20T10:12:55.820Z,11.35
2019-05-20T10:15:25.429Z,11.10
2019-05-20T10:17:56.542Z,13.58
2019-05-20T10:20:26.082Z,11.88
2019-05-20T10:22:55.575Z,11.40
2019-05-20T10:25:25.083Z,11.50
2019-05-20T10:27:57.531Z,12.35
2019-05-20T10:30:26.362Z,11.57
2019-05-20T10:32:55.801Z,11.80
2019-05-20T10:35:25.340Z,13.38
2019-05-20T10:37:54.810Z,12.80
2019-05-20T10:40:24.335Z,12.13
2019-05-20T10:42:53.813Z,12.98
2019-05-20T10:45:23.260Z,14.15
2019-05-20T10:47:52.869Z,13.25
2019-05-20T10:50:22.403Z,13.50
2019-05-20T10:52:51.840Z,12.95
2019-05-20T10:55:21.384Z,12.55
2019-05-20T10:57:50.815Z,14.95
2019-05-20T11:00:20.731Z,15.05
2019-05-20T11:02:50.194Z,14.13
2019-05-20T11:05:19.904Z,14.75
2019-05-20T11:07:49.603Z,13.72
2019-05-20T11:10:19.990Z,14.38
2019-05-20T11:12:49.442Z,15.88
2019-05-20T11:15:19.167Z,14.85
2019-05-20T11:17:50.216Z,15.70
2019-05-20T11:20:20.126Z,15.25
2019-05-20T11:22:49.591Z,16.50
2019-05-20T11:25:19.596Z,14.23
2019-05-20T11:27:49.122Z,16.15
2019-05-20T11:30:19.457Z,18.12
2019-05-20T11:32:48.935Z,16.73
2019-05-20T11:35:18.614Z,16.48
2019-05-20T11:37:48.473Z,16.17
2019-05-20T11:40:18.601Z,18.12
2019-05-20T11:42:48.064Z,18.10
2019-05-20T11:45:18.957Z,17.07
2019-05-20T11:47:48.607Z,17.20
2019-05-20T11:50:19.871Z,17.00
2019-05-20T11:52:49.378Z,15.78
2019-05-20T11:55:19.052Z,16.35
2019-05-20T11:57:48.510Z,14.43
2019-05-20T12:00:18.423Z,15.00
2019-05-20T12:02:47.900Z,15.10
2019-05-20T12:05:18.830Z,14.55
2019-05-20T12:07:48.276Z,14.87
2019-05-20T12:10:18.237Z,15.40
2019-05-20T12:12:47.725Z,15.72
2019-05-20T12:15:17.361Z,13.18
2019-05-20T12:17:46.846Z,13.93
2019-05-20T12:20:16.521Z,12.80
2019-05-20T12:22:45.997Z,13.70
2019-05-20T12:25:16.207Z,13.28
2019-05-20T12:27:45.640Z,12.30
2019-05-20T12:30:15.667Z,13.25
2019-05-20T12:32:45.123Z,13.18
2019-05-20T12:35:14.809Z,15.80
2019-05-20T12:37:45.742Z,15.38
2019-05-20T12:40:16.086Z,15.45
2019-05-20T12:42:45.523Z,15.55
2019-05-20T12:45:15.326Z,15.60
2019-05-20T12:47:44.788Z,15.48
2019-05-20T12:50:16.361Z,15.65
2019-05-20T12:52:45.830Z,13.83
2019-05-20T12:55:15.631Z,14.53
2019-05-20T12:57:45.104Z,12.80
2019-05-20T13:00:16.158Z,12.53
2019-05-20T13:02:45.629Z,10.63
2019-05-20T13:05:15.827Z,9.40
2019-05-20T13:07:45.314Z,9.78
2019-05-20T13:10:29.114Z,10.15
2019-05-20T13:12:46.421Z,10.08
2019-05-20T13:15:16.910Z,11.43
2019-05-20T13:17:46.372Z,15.85
2019-05-20T13:20:16.602Z,17.10
2019-05-20T13:22:46.074Z,16.67
2019-05-20T13:25:16.047Z,18.37
2019-05-20T13:27:45.503Z,18.48
2019-05-20T13:30:15.752Z,18.37
2019-05-20T13:32:45.204Z,16.52
2019-05-20T13:35:15.259Z,15.23
2019-05-20T13:37:44.784Z,14.90
2019-05-20T13:40:15.363Z,16.55
2019-05-20T13:42:45.402Z,16.73
2019-05-20T13:45:15.170Z,15.48
2019-05-20T13:47:44.822Z,16.57
2019-05-20T13:50:14.910Z,17.73
2019-05-20T13:52:44.448Z,16.85
2019-05-20T13:55:14.672Z,15.72
2019-05-20T13:57:44.286Z,15.58
2019-05-20T14:00:14.204Z,15.32
2019-05-20T14:02:43.638Z,15.50
2019-05-20T14:05:13.388Z,15.90
2019-05-20T14:07:42.862Z,16.37
2019-05-20T14:10:12.562Z,16.27
2019-05-20T14:12:42.012Z,16.65
2019-05-20T14:15:12.707Z,16.93
2019-05-20T14:17:42.177Z,18.07
2019-05-20T14:20:12.146Z,17.95
2019-05-20T14:22:41.581Z,17.67
2019-05-20T14:25:11.524Z,17.70
2019-05-20T14:27:40.965Z,17.20
2019-05-20T14:30:11.090Z,16.25
2019-05-20T14:32:40.677Z,14.38
2019-05-20T14:35:10.520Z,16.17
2019-05-20T14:37:40.018Z,16.42
2019-05-20T14:40:10.446Z,16.27
2019-05-20T14:42:39.917Z,14.63
2019-05-20T14:45:09.798Z,14.43
2019-05-20T14:47:39.241Z,15.40
2019-05-20T14:50:10.343Z,14.98
2019-05-20T14:52:39.775Z,14.50
2019-05-20T14:55:09.589Z,14.95
2019-05-20T14:57:39.398Z,14.75
2019-05-20T15:00:09.671Z,13.55
2019-05-20T15:02:39.208Z,15.38
2019-05-20T15:05:09.556Z,13.80
2019-05-20T15:07:39.046Z,13.75
2019-05-20T15:10:10.194Z,14.20
2019-05-20T15:12:39.659Z,13.75
2019-05-20T15:15:09.845Z,12.58
2019-05-20T15:17:39.427Z,14.53
2019-05-20T15:20:09.966Z,13.72
2019-05-20T15:22:39.385Z,14.80
2019-05-20T15:25:09.832Z,14.93
2019-05-20T15:27:39.284Z,15.20
2019-05-20T15:30:10.970Z,13.93
2019-05-20T15:32:40.428Z,13.45
2019-05-20T15:35:10.294Z,15.18
2019-05-20T15:37:39.752Z,15.95
2019-05-20T15:40:09.948Z,15.05
2019-05-20T15:42:40.903Z,15.63
2019-05-20T15:45:11.905Z,15.10
2019-05-20T15:47:41.537Z,14.43
2019-05-20T15:50:11.378Z,16.00
2019-05-20T15:52:40.831Z,15.25
2019-05-20T15:55:10.750Z,15.75
2019-05-20T15:57:40.226Z,15.98
2019-05-20T16:00:12.330Z,16.48
2019-05-20T16:02:41.826Z,16.70
2019-05-20T16:05:11.639Z,14.85
2019-05-20T16:07:41.143Z,15.88
2019-05-20T16:10:10.814Z,15.70
2019-05-20T16:12:40.272Z,14.53
2019-05-20T16:15:10.585Z,13.05
2019-05-20T16:17:40.056Z,13.60
2019-05-20T16:20:09.908Z,12.85
2019-05-20T16:22:39.358Z,12.00
2019-05-20T16:25:10.706Z,13.85
2019-05-20T16:27:40.232Z,12.88
2019-05-20T16:30:12.537Z,14.75
2019-05-20T16:32:41.991Z,14.63
2019-05-20T16:35:11.571Z,16.07
2019-05-20T16:37:41.429Z,15.85
2019-05-20T16:40:12.148Z,15.25
2019-05-20T16:42:42.238Z,14.40
2019-05-20T16:45:13.516Z,14.33
2019-05-20T16:47:43.141Z,15.48
2019-05-20T16:50:16.246Z,14.00
2019-05-20T16:52:45.882Z,13.93
2019-05-20T16:55:16.174Z,14.20
2019-05-20T16:57:45.806Z,13.53
2019-05-20T17:00:30.821Z,14.33
2019-05-20T17:02:47.333Z,13.55
2019-05-20T17:05:17.215Z,13.98
2019-05-20T17:07:46.790Z,12.82
2019-05-20T17:10:17.976Z,14.13
2019-05-20T17:12:49.130Z,14.13
2019-05-20T17:15:21.429Z,14.80
2019-05-20T17:17:50.967Z,15.03
2019-05-20T17:20:20.623Z,13.48
2019-05-20T17:22:50.242Z,11.95
2019-05-20T17:25:19.789Z,11.65
2019-05-20T17:27:49.320Z,11.08
2019-05-20T17:30:19.319Z,13.18
2019-05-20T17:32:48.822Z,13.38
2019-05-20T17:35:18.260Z,13.13
2019-05-20T17:37:47.729Z,14.05
2019-05-20T17:40:18.002Z,14.13
2019-05-20T17:42:47.456Z,12.90
2019-05-20T17:45:17.461Z,12.80
2019-05-20T17:47:47.073Z,13.08
2019-05-20T17:50:17.291Z,12.90
2019-05-20T17:52:46.761Z,13.22
2019-05-20T17:55:16.565Z,14.60
2019-05-20T17:57:46.015Z,14.65
2019-05-20T18:00:17.367Z,14.73
2019-05-20T18:02:46.918Z,12.70
2019-05-20T18:05:16.582Z,14.60
2019-05-20T18:07:46.051Z,13.32
2019-05-20T18:10:18.247Z,14.23
2019-05-20T18:12:47.866Z,14.68
2019-05-20T18:15:19.315Z,14.05
2019-05-20T18:17:48.770Z,13.78
2019-05-20T18:20:18.629Z,14.28
2019-05-20T18:22:48.160Z,14.10
2019-05-20T18:25:18.251Z,15.25
2019-05-20T18:27:47.821Z,14.63
2019-05-20T18:30:17.598Z,14.55
2019-05-20T18:32:47.052Z,15.63
2019-05-20T18:35:16.747Z,15.15
2019-05-20T18:37:46.206Z,14.00
2019-05-20T18:40:17.320Z,13.93
2019-05-20T18:42:46.743Z,15.25
2019-05-20T18:45:16.341Z,14.30
2019-05-20T18:47:45.802Z,14.38
2019-05-20T18:50:16.410Z,14.65
2019-05-20T18:52:45.872Z,15.65
2019-05-20T18:55:17.306Z,14.98
2019-05-20T18:57:46.986Z,15.40
2019-05-20T19:00:18.362Z,14.38
2019-05-20T19:02:47.993Z,13.93
2019-05-20T19:05:19.178Z,15.78
2019-05-20T19:07:49.056Z,16.25
2019-05-20T19:10:18.751Z,17.98
2019-05-20T19:12:48.314Z,16.23
2019-05-20T19:15:18.231Z,14.18
2019-05-20T19:17:48.056Z,16.87
2019-05-20T19:20:17.598Z,17.50
2019-05-20T19:22:47.059Z,17.65
2019-05-20T19:25:16.764Z,18.30
2019-05-20T19:27:46.790Z,18.12
2019-05-20T19:30:16.673Z,17.50
2019-05-20T19:32:46.135Z,17.70
2019-05-20T19:35:16.398Z,19.10
2019-05-20T19:37:46.169Z,19.42
2019-05-20T19:40:16.451Z,20.72
2019-05-20T19:42:49.507Z,19.80
2019-05-20T19:45:19.020Z,21.12
2019-05-20T19:47:48.607Z,20.02
2019-05-20T19:50:19.683Z,18.07
2019-05-20T19:52:49.397Z,15.90
2019-05-20T19:55:19.465Z,18.27
2019-05-20T19:57:48.953Z,18.85
2019-05-20T20:00:18.950Z,17.80
2019-05-20T20:02:48.568Z,17.60
2019-05-20T20:05:18.364Z,17.77
2019-05-20T20:07:48.307Z,17.15
2019-05-20T20:10:18.183Z,15.48
2019-05-20T20:12:47.849Z,16.27
2019-05-20T20:15:19.675Z,16.90
2019-05-20T20:17:49.615Z,16.32
2019-05-20T20:20:19.417Z,16.30
2019-05-20T20:22:49.010Z,16.23
2019-05-20T20:25:18.678Z,15.55
2019-05-20T20:27:48.290Z,15.55
2019-05-20T20:30:19.798Z,15.78
2019-05-20T20:32:49.288Z,15.08
2019-05-20T20:35:19.255Z,16.65
2019-05-20T20:37:48.965Z,15.68
2019-05-20T20:40:20.472Z,14.87
2019-05-20T20:42:50.331Z,15.72
2019-05-20T20:45:20.010Z,15.55
2019-05-20T20:47:49.597Z,14.78
2019-05-20T20:50:19.677Z,14.53
2019-05-20T20:52:49.229Z,14.30
2019-05-20T20:55:18.874Z,15.38
2019-05-20T20:57:49.705Z,14.47
2019-05-20T21:00:19.504Z,15.13
2019-05-20T21:02:53.177Z,14.03
2019-05-20T21:05:20.476Z,14.10
2019-05-20T21:07:51.733Z,13.70
2019-05-20T21:10:21.718Z,14.78
2019-05-20T21:12:51.366Z,14.60
2019-05-20T21:15:21.198Z,15.45
2019-05-20T21:17:50.899Z,14.90
2019-05-20T21:20:20.626Z,14.63
2019-05-20T21:22:50.269Z,14.58
2019-05-20T21:25:19.962Z,14.33
2019-05-20T21:27:49.749Z,14.65
2019-05-20T21:30:19.449Z,15.55
2019-05-20T21:32:48.898Z,15.85
2019-05-20T21:35:18.351Z,14.95
2019-05-20T21:37:47.804Z,14.68
2019-05-20T21:40:17.317Z,15.48
2019-05-20T21:42:46.749Z,16.40
2019-05-20T21:45:16.398Z,17.32
2019-05-20T21:47:45.828Z,17.05
2019-05-20T21:50:15.444Z,16.80
2019-05-20T21:52:44.891Z,18.92
2019-05-20T21:55:14.595Z,18.62
2019-05-20T21:57:44.056Z,19.45
2019-05-20T22:00:18.296Z,18.45
2019-05-20T22:02:47.734Z,18.25
2019-05-20T22:05:17.327Z,16.32
2019-05-20T22:07:46.836Z,14.73
2019-05-20T22:10:16.402Z,14.53
2019-05-20T22:12:45.872Z,14.25
2019-05-20T22:15:15.385Z,14.98
2019-05-20T22:17:44.834Z,15.78
2019-05-20T22:20:14.412Z,16.62
2019-05-20T22:22:45.530Z,18.00
2019-05-20T22:25:15.071Z,17.75
2019-05-20T22:27:44.513Z,18.20
2019-05-20T22:30:14.223Z,16.27
2019-05-20T22:32:43.666Z,15.20
2019-05-20T22:35:13.270Z,14.35
2019-05-20T22:37:42.712Z,16.70
2019-05-20T22:40:12.551Z,15.75
2019-05-20T22:42:42.031Z,15.38
2019-05-20T22:45:11.720Z,16.73
2019-05-20T22:47:41.217Z,15.58
2019-05-20T22:50:10.789Z,14.80
2019-05-20T22:52:40.281Z,14.00
2019-05-20T22:55:10.001Z,16.25
2019-05-20T22:57:39.450Z,15.60
2019-05-20T23:00:09.426Z,16.07
2019-05-20T23:02:38.870Z,16.40
2019-05-20T23:05:08.774Z,16.55
2019-05-20T23:07:41.185Z,16.50
2019-05-20T23:10:11.274Z,16.82
2019-05-20T23:12:40.760Z,18.12
2019-05-20T23:15:10.511Z,17.25
2019-05-20T23:17:39.975Z,18.67
2019-05-20T23:20:09.577Z,18.10
2019-05-20T23:22:39.065Z,18.07
2019-05-20T23:25:08.663Z,20.20
2019-05-20T23:27:38.159Z,20.00
2019-05-20T23:30:09.146Z,20.12
2019-05-20T23:32:38.602Z,18.60
2019-05-20T23:35:08.333Z,18.77
2019-05-20T23:37:40.697Z,19.37
2019-05-20T23:40:10.516Z,20.60
2019-05-20T23:42:39.959Z,18.52
2019-05-20T23:45:10.342Z,18.48
2019-05-20T23:47:39.779Z,18.17
2019-05-20T23:50:09.529Z,20.37
2019-05-20T23:52:38.969Z,23.07
2019-05-20T23:55:09.647Z,24.37
2019-05-20T23:57:39.249Z,25.72
